Weather at Franconia Airport

Public forecast

Using degrees Fahrenheit for public forecast. Weather courtesy of forecast.io.

Closest aviation weather report (METAR) to Franconia Airport

Closest report is Mount Washington Regional Airport, 13.6 nm (25.1 km) NE. Retrieved 2021/01/23 05:52 UTC (40 minutes ago):

KHIE 230552Z AUTO 29006KT 10SM BKN039 BKN055 OVC080 M07/M12 A2975 RMK AO2 SLP091 60000 I6000 T10671122 11044 21072 51008

Closest aviation forecast (TAF) to Franconia Airport

Closest forecast is Mount Washington Regional Airport, 13.6 nm (25.1 km) NE. Retrieved 2021/01/23 06:24 UTC (8 minutes ago):

TAF KHIE 230521Z 2306/2406 29007KT P6SM BKN045 FM231600 29011G21KT P6SM BKN035